createdAt,value
2023-02-02T00:02:47.091Z,3.03
2023-02-02T00:08:49.531Z,2.80
2023-02-02T00:14:51.320Z,2.53
2023-02-02T00:20:53.711Z,2.72
2023-02-02T00:26:57.737Z,2.65
2023-02-02T00:32:59.630Z,2.95
2023-02-02T00:39:01.598Z,2.65
2023-02-02T00:45:17.001Z,2.35
2023-02-02T00:51:20.282Z,2.90
2023-02-02T00:57:22.922Z,2.88
2023-02-02T01:03:24.802Z,2.25
2023-02-02T01:09:26.726Z,3.47
2023-02-02T01:15:30.498Z,2.10
2023-02-02T01:21:32.501Z,2.63
2023-02-02T01:27:34.269Z,3.13
2023-02-02T01:33:36.549Z,2.55
2023-02-02T01:39:38.577Z,2.45
2023-02-02T01:45:40.474Z,2.83
2023-02-02T01:51:48.940Z,2.65
2023-02-02T01:58:08.307Z,2.95
2023-02-02T02:04:14.916Z,3.28
2023-02-02T02:10:19.478Z,3.35
2023-02-02T02:16:44.740Z,2.92
2023-02-02T02:23:43.153Z,3.78
2023-02-02T02:29:49.137Z,3.10
2023-02-02T02:36:01.588Z,2.50
2023-02-02T02:42:11.100Z,2.92
2023-02-02T02:48:13.213Z,2.83
2023-02-02T02:54:27.014Z,2.70
2023-02-02T03:00:41.234Z,4.07
2023-02-02T03:06:48.625Z,3.53
2023-02-02T03:12:53.787Z,2.78
2023-02-02T03:18:56.842Z,3.25
2023-02-02T03:24:59.567Z,3.00
2023-02-02T03:31:02.815Z,3.22
2023-02-02T03:37:04.782Z,3.10
2023-02-02T03:43:06.749Z,3.17
2023-02-02T03:49:08.594Z,3.20
2023-02-02T03:55:10.472Z,3.10
2023-02-02T04:01:15.057Z,2.63
2023-02-02T04:07:16.883Z,2.53
2023-02-02T04:13:18.611Z,2.90
2023-02-02T04:19:20.407Z,2.80
2023-02-02T04:25:22.405Z,3.05
2023-02-02T04:31:24.367Z,2.50
2023-02-02T04:37:26.217Z,2.97
2023-02-02T04:43:28.070Z,2.85
2023-02-02T04:49:30.468Z,2.60
2023-02-02T04:55:36.607Z,2.78
2023-02-02T05:01:38.376Z,2.33
2023-02-02T05:07:40.659Z,2.85
2023-02-02T05:13:47.279Z,3.03
2023-02-02T05:19:49.225Z,4.10
2023-02-02T05:25:55.339Z,3.22
2023-02-02T05:31:58.963Z,2.50
2023-02-02T05:38:00.815Z,3.00
2023-02-02T05:44:03.256Z,2.22
2023-02-02T05:50:05.430Z,2.78
2023-02-02T05:56:07.617Z,3.55
2023-02-02T06:02:09.404Z,3.13
2023-02-02T06:08:11.227Z,3.10
2023-02-02T06:14:13.132Z,2.80
2023-02-02T06:20:15.140Z,3.60
2023-02-02T06:26:18.126Z,3.40
2023-02-02T06:32:19.990Z,3.00
2023-02-02T06:38:21.787Z,2.75
2023-02-02T06:44:23.554Z,3.60
2023-02-02T06:50:25.371Z,3.10
2023-02-02T06:56:27.233Z,3.40
2023-02-02T07:02:29.045Z,2.70
2023-02-02T07:08:30.824Z,3.35
2023-02-02T07:14:32.615Z,2.63
2023-02-02T07:20:34.607Z,3.70
2023-02-02T07:26:36.618Z,3.20
2023-02-02T07:32:38.432Z,2.92
2023-02-02T07:38:40.299Z,1.85
2023-02-02T07:44:42.104Z,1.60
2023-02-02T07:50:43.912Z,1.42
2023-02-02T07:56:46.896Z,1.10
2023-02-02T08:02:49.653Z,1.10
2023-02-02T08:08:52.240Z,1.40
2023-02-02T08:14:54.241Z,0.90
2023-02-02T08:20:59.788Z,1.48
2023-02-02T08:27:01.721Z,1.30
2023-02-02T08:33:03.640Z,1.65
2023-02-02T08:39:08.098Z,1.67
2023-02-02T08:46:04.565Z,1.30
2023-02-02T08:51:32.020Z,1.92
2023-02-02T08:57:34.498Z,2.33
2023-02-02T09:03:38.885Z,2.10
2023-02-02T09:09:40.744Z,2.10
2023-02-02T09:15:42.544Z,1.90
2023-02-02T09:21:44.429Z,2.15
2023-02-02T09:27:46.229Z,2.10
2023-02-02T09:33:48.203Z,2.17
2023-02-02T09:39:50.064Z,1.40
2023-02-02T09:46:28.881Z,1.52
2023-02-02T09:52:46.468Z,1.70
2023-02-02T09:58:55.446Z,1.33
2023-02-02T10:05:08.792Z,1.38
2023-02-02T10:11:35.160Z,1.55
2023-02-02T10:17:58.031Z,1.23
2023-02-02T10:24:02.498Z,1.45
2023-02-02T10:30:17.960Z,1.60
2023-02-02T10:36:43.077Z,1.60
2023-02-02T10:43:18.633Z,1.65
2023-02-02T10:49:35.352Z,1.40
2023-02-02T10:55:51.793Z,1.48
2023-02-02T11:01:53.691Z,2.08
2023-02-02T11:07:55.764Z,1.20
2023-02-02T11:14:09.883Z,1.38
2023-02-02T11:20:35.507Z,1.20
2023-02-02T11:26:49.942Z,1.20
2023-02-02T11:32:51.940Z,1.65
2023-02-02T11:39:16.763Z,1.90
2023-02-02T11:45:30.275Z,1.20
2023-02-02T11:51:32.605Z,1.02
2023-02-02T11:57:34.428Z,1.20
2023-02-02T12:03:39.627Z,1.33
2023-02-02T12:09:45.984Z,1.40
2023-02-02T12:16:13.805Z,1.10
2023-02-02T12:22:20.888Z,1.42
2023-02-02T12:28:39.003Z,1.15
2023-02-02T12:41:09.942Z,1.17
2023-02-02T12:48:07.208Z,1.10
2023-02-02T12:54:32.795Z,1.30
2023-02-02T13:00:38.405Z,0.90
2023-02-02T13:07:09.447Z,2.50
2023-02-02T13:13:16.030Z,1.42
2023-02-02T13:19:38.960Z,1.55
2023-02-02T13:26:07.406Z,1.50
2023-02-02T13:32:41.785Z,1.15
2023-02-02T13:38:45.742Z,1.17
2023-02-02T13:44:58.514Z,1.00
2023-02-02T13:51:18.365Z,1.10
2023-02-02T13:57:35.441Z,1.50
2023-02-02T14:03:57.500Z,2.17
2023-02-02T14:09:59.675Z,1.40
2023-02-02T14:16:06.035Z,1.45
2023-02-02T14:22:12.094Z,1.23
2023-02-02T14:28:44.894Z,1.20
2023-02-02T14:34:47.019Z,0.95
2023-02-02T14:41:13.112Z,1.70
2023-02-02T14:47:48.225Z,1.95
2023-02-02T14:53:53.416Z,1.92
2023-02-02T14:59:58.225Z,2.85
2023-02-02T15:06:13.859Z,3.10
2023-02-02T15:12:26.679Z,2.25
2023-02-02T15:18:39.178Z,2.20
2023-02-02T15:24:45.268Z,1.85
2023-02-02T15:30:56.767Z,2.42
2023-02-02T15:37:05.880Z,2.97
2023-02-02T15:43:10.575Z,3.33
2023-02-02T15:49:33.836Z,3.75
2023-02-02T15:55:36.863Z,3.88
2023-02-02T16:01:47.523Z,4.63
2023-02-02T16:08:03.691Z,4.43
2023-02-02T16:14:13.974Z,4.63
2023-02-02T16:20:18.126Z,4.07
2023-02-02T16:26:29.603Z,3.85
2023-02-02T16:32:35.215Z,3.95
2023-02-02T16:38:40.633Z,4.28
2023-02-02T16:44:43.853Z,4.75
2023-02-02T16:50:47.651Z,5.25
2023-02-02T16:57:01.029Z,6.18
2023-02-02T17:03:10.532Z,4.75
2023-02-02T17:09:40.851Z,4.28
2023-02-02T17:15:42.648Z,4.85
2023-02-02T17:21:44.490Z,4.47
2023-02-02T17:27:46.818Z,4.60
2023-02-02T17:33:48.605Z,3.75
2023-02-02T17:39:50.820Z,3.95
2023-02-02T17:45:53.170Z,4.00
2023-02-02T17:51:55.195Z,4.05
2023-02-02T17:57:57.300Z,4.38
2023-02-02T18:03:59.133Z,4.18
2023-02-02T18:10:00.946Z,3.88
2023-02-02T18:16:05.485Z,4.20
2023-02-02T18:22:07.437Z,4.63
2023-02-02T18:28:10.749Z,3.15
2023-02-02T18:34:12.750Z,5.18
2023-02-02T18:40:14.863Z,7.53
2023-02-02T18:46:17.343Z,3.30
2023-02-02T18:52:19.896Z,3.05
2023-02-02T18:58:21.861Z,3.70
2023-02-02T19:04:25.919Z,2.90
2023-02-02T19:10:30.353Z,2.90
2023-02-02T19:16:34.531Z,2.83
2023-02-02T19:22:37.202Z,3.50
2023-02-02T19:28:39.895Z,2.20
2023-02-02T19:34:42.143Z,2.40
2023-02-02T19:40:44.613Z,2.22
2023-02-02T19:46:49.965Z,2.65
2023-02-02T19:52:53.513Z,3.25
2023-02-02T19:58:56.832Z,3.00
2023-02-02T20:05:11.094Z,4.25
2023-02-02T20:11:35.659Z,4.18
2023-02-02T20:17:40.424Z,4.47
2023-02-02T20:23:44.612Z,4.70
2023-02-02T20:29:49.154Z,4.22
2023-02-02T20:35:51.172Z,3.55
2023-02-02T20:41:57.401Z,3.90
2023-02-02T20:47:59.262Z,4.57
2023-02-02T20:54:01.092Z,4.05
2023-02-02T21:00:03.019Z,3.25
2023-02-02T21:06:07.491Z,4.10
2023-02-02T21:12:09.431Z,4.70
2023-02-02T21:18:11.382Z,4.70
2023-02-02T21:24:13.221Z,4.30
2023-02-02T21:30:15.125Z,4.53
2023-02-02T21:36:36.749Z,4.00
2023-02-02T21:42:38.816Z,4.50
2023-02-02T21:48:42.079Z,4.68
2023-02-02T21:54:44.557Z,4.22
2023-02-02T22:00:46.700Z,4.63
2023-02-02T22:07:15.705Z,6.50
2023-02-02T22:13:19.103Z,5.28
2023-02-02T22:19:31.270Z,6.40
2023-02-02T22:25:36.575Z,6.38
2023-02-02T22:31:38.584Z,7.50
2023-02-02T22:37:40.892Z,8.00
2023-02-02T22:43:42.872Z,7.97
2023-02-02T22:49:44.673Z,10.55
2023-02-02T22:55:46.478Z,11.13
2023-02-02T23:01:48.287Z,10.27
2023-02-02T23:07:50.988Z,12.23
2023-02-02T23:13:52.814Z,11.77
2023-02-02T23:19:54.702Z,11.18
2023-02-02T23:25:56.516Z,10.93
2023-02-02T23:38:31.146Z,14.10
2023-02-02T23:44:32.871Z,12.35
2023-02-02T23:50:39.704Z,13.68
2023-02-02T23:56:42.323Z,13.40
